createdAt,value
2023-01-19T00:00:18.842Z,3.40
2023-01-19T00:03:18.072Z,3.40
2023-01-19T00:05:52.726Z,3.40
2023-01-19T00:08:26.489Z,3.42
2023-01-19T00:11:00.367Z,3.50
2023-01-19T00:13:34.284Z,3.46
2023-01-19T00:16:09.630Z,3.40
2023-01-19T00:18:46.582Z,3.40
2023-01-19T00:21:21.742Z,3.50
2023-01-19T00:23:55.417Z,3.50
2023-01-19T00:26:29.243Z,3.50
2023-01-19T00:29:04.799Z,3.52
2023-01-19T00:31:39.003Z,3.60
2023-01-19T00:34:13.341Z,3.60
2023-01-19T00:36:47.279Z,3.60
2023-01-19T00:39:21.713Z,3.60
2023-01-19T00:42:12.998Z,3.60
2023-01-19T00:44:46.923Z,3.60
2023-01-19T00:47:20.649Z,3.60
2023-01-19T00:49:54.424Z,3.60
2023-01-19T00:52:28.456Z,3.60
2023-01-19T00:55:02.202Z,3.62
2023-01-19T00:57:36.293Z,3.70
2023-01-19T01:00:14.599Z,3.70
2023-01-19T01:02:49.811Z,3.64
2023-01-19T01:05:24.867Z,3.60
2023-01-19T01:07:58.630Z,3.60
2023-01-19T01:10:33.949Z,3.60
2023-01-19T01:13:20.898Z,3.66
2023-01-19T01:15:57.152Z,3.70
2023-01-19T01:27:05.791Z,3.68
2023-01-19T01:29:41.470Z,3.70
2023-01-19T01:32:15.698Z,3.60
2023-01-19T01:34:49.500Z,3.60
2023-01-19T01:37:23.112Z,3.50
2023-01-19T01:39:57.188Z,3.50
2023-01-19T01:42:33.389Z,3.50
2023-01-19T01:45:23.638Z,3.44
2023-01-19T01:48:02.313Z,3.40
2023-01-19T01:51:03.002Z,3.40
2023-01-19T01:53:39.573Z,3.30
2023-01-19T01:56:19.996Z,3.30
2023-01-19T01:58:54.711Z,3.30
2023-01-19T02:01:46.050Z,3.30
2023-01-19T02:04:20.999Z,3.20
2023-01-19T02:07:12.276Z,3.24
2023-01-19T02:10:04.048Z,3.30
2023-01-19T02:12:55.875Z,3.20
2023-01-19T02:15:29.707Z,3.20
2023-01-19T02:18:03.601Z,3.20
2023-01-19T02:20:41.802Z,3.20
2023-01-19T02:23:25.050Z,3.20
2023-01-19T02:25:59.293Z,3.20
2023-01-19T02:28:34.454Z,3.20
2023-01-19T02:31:09.043Z,3.20
2023-01-19T02:33:43.071Z,3.10
2023-01-19T02:36:22.368Z,3.10
2023-01-19T02:39:00.236Z,3.10
2023-01-19T02:41:40.858Z,3.10
2023-01-19T02:44:16.795Z,3.10
2023-01-19T02:46:50.883Z,3.10
2023-01-19T02:49:25.024Z,3.10
2023-01-19T02:52:01.214Z,3.10
2023-01-19T02:54:49.793Z,3.10
2023-01-19T02:57:37.127Z,3.10
2023-01-19T03:00:29.678Z,3.10
2023-01-19T03:03:21.086Z,3.08
2023-01-19T03:06:05.726Z,3.06
2023-01-19T03:08:54.876Z,3.10
2023-01-19T03:11:40.312Z,3.08
2023-01-19T03:14:23.555Z,3.00
2023-01-19T03:17:02.862Z,3.00
2023-01-19T03:19:41.624Z,3.00
2023-01-19T03:22:20.554Z,3.00
2023-01-19T03:25:00.892Z,3.00
2023-01-19T03:27:41.263Z,3.00
2023-01-19T03:30:23.714Z,3.00
2023-01-19T03:33:04.895Z,3.00
2023-01-19T03:35:44.768Z,3.00
2023-01-19T03:38:26.374Z,3.00
2023-01-19T03:41:07.411Z,3.00
2023-01-19T03:43:42.902Z,3.00
2023-01-19T03:46:18.966Z,3.00
2023-01-19T03:48:53.336Z,3.00
2023-01-19T03:51:28.075Z,3.00
2023-01-19T03:54:02.005Z,3.00
2023-01-19T03:56:36.230Z,3.00
2023-01-19T03:59:10.099Z,3.00
2023-01-19T04:01:43.888Z,3.00
2023-01-19T04:04:18.200Z,3.00
2023-01-19T04:06:52.044Z,3.00
2023-01-19T04:09:26.255Z,3.00
2023-01-19T04:12:01.621Z,3.00
2023-01-19T04:14:36.024Z,2.90
2023-01-19T04:17:10.538Z,2.90
2023-01-19T04:19:45.310Z,2.90
2023-01-19T04:22:19.277Z,2.90
2023-01-19T04:24:53.808Z,2.90
2023-01-19T04:27:27.713Z,2.90
2023-01-19T04:30:01.847Z,2.90
2023-01-19T04:32:36.996Z,2.90
2023-01-19T04:35:11.449Z,2.98
2023-01-19T04:37:45.889Z,2.90
2023-01-19T04:40:20.357Z,2.90
2023-01-19T04:42:54.587Z,2.90
2023-01-19T04:45:28.525Z,2.94
2023-01-19T04:48:04.412Z,2.92
2023-01-19T04:50:38.623Z,2.92
2023-01-19T04:53:13.924Z,2.90
2023-01-19T04:55:48.248Z,2.96
2023-01-19T04:58:22.546Z,3.00
2023-01-19T05:00:56.922Z,3.00
2023-01-19T05:03:30.626Z,2.98
2023-01-19T05:06:04.947Z,2.92
2023-01-19T05:08:39.185Z,3.00
2023-01-19T05:11:12.966Z,3.00
2023-01-19T05:13:46.585Z,3.00
2023-01-19T05:16:20.322Z,3.00
2023-01-19T05:18:54.173Z,3.00
2023-01-19T05:21:28.433Z,3.00
2023-01-19T05:24:02.062Z,3.02
2023-01-19T05:26:36.009Z,3.02
2023-01-19T05:29:10.300Z,3.00
2023-01-19T05:31:43.950Z,3.10
2023-01-19T05:34:18.352Z,3.10
2023-01-19T05:36:52.239Z,3.10
2023-01-19T05:39:26.906Z,3.10
2023-01-19T05:42:00.920Z,3.10
2023-01-19T05:44:34.630Z,3.10
2023-01-19T05:47:08.451Z,3.16
2023-01-19T05:49:45.352Z,3.20
2023-01-19T05:52:19.315Z,3.20
2023-01-19T05:54:55.140Z,3.20
2023-01-19T05:57:28.854Z,3.18
2023-01-19T06:00:02.512Z,3.20
2023-01-19T06:02:43.599Z,3.20
2023-01-19T06:05:17.823Z,3.20
2023-01-19T06:07:53.989Z,3.20
2023-01-19T06:10:27.838Z,3.20
2023-01-19T06:13:01.995Z,3.20
2023-01-19T06:15:35.867Z,3.20
2023-01-19T06:18:09.689Z,3.20
2023-01-19T06:20:45.115Z,3.20
2023-01-19T06:23:19.027Z,3.20
2023-01-19T06:25:53.406Z,3.20
2023-01-19T06:28:27.662Z,3.20
2023-01-19T06:31:02.805Z,3.20
2023-01-19T06:33:36.944Z,3.20
2023-01-19T06:36:11.618Z,3.20
2023-01-19T06:38:45.274Z,3.20
2023-01-19T06:41:18.957Z,3.20
2023-01-19T06:43:52.553Z,3.20
2023-01-19T06:46:26.267Z,3.20
2023-01-19T06:49:00.119Z,3.20
2023-01-19T06:51:33.791Z,3.20
2023-01-19T06:54:07.661Z,3.20
2023-01-19T06:56:41.521Z,3.20
2023-01-19T06:59:15.300Z,3.20
2023-01-19T07:01:49.304Z,3.12
2023-01-19T07:04:23.014Z,3.14
2023-01-19T07:06:56.947Z,3.20
2023-01-19T07:09:30.669Z,3.20
2023-01-19T07:12:04.472Z,3.20
2023-01-19T07:14:38.435Z,3.20
2023-01-19T07:17:13.492Z,3.18
2023-01-19T07:19:47.236Z,3.20
2023-01-19T07:22:21.165Z,3.20
2023-01-19T07:24:54.965Z,3.14
2023-01-19T07:27:29.635Z,3.10
2023-01-19T07:30:04.579Z,3.10
2023-01-19T07:32:38.404Z,3.10
2023-01-19T07:35:13.338Z,3.14
2023-01-19T07:37:47.046Z,3.14
2023-01-19T07:40:23.828Z,3.10
2023-01-19T07:42:58.779Z,3.10
2023-01-19T07:45:32.818Z,3.10
2023-01-19T07:48:07.031Z,3.18
2023-01-19T07:50:40.702Z,3.18
2023-01-19T07:53:14.633Z,3.14
2023-01-19T07:55:48.517Z,3.10
2023-01-19T07:58:22.335Z,3.10
2023-01-19T08:00:56.240Z,3.16
2023-01-19T08:03:30.196Z,3.10
2023-01-19T08:06:05.206Z,3.16
2023-01-19T08:08:39.126Z,3.16
2023-01-19T08:11:12.969Z,3.20
2023-01-19T08:13:47.217Z,3.28
2023-01-19T08:16:20.932Z,3.30
2023-01-19T08:18:54.714Z,3.38
2023-01-19T08:21:28.462Z,3.40
2023-01-19T08:24:02.541Z,3.40
2023-01-19T08:26:38.308Z,3.50
2023-01-19T08:29:12.232Z,3.50
2023-01-19T08:31:46.038Z,3.60
2023-01-19T08:34:20.262Z,3.60
2023-01-19T08:36:54.146Z,3.60
2023-01-19T08:39:28.552Z,3.60
2023-01-19T08:42:02.144Z,3.60
2023-01-19T08:44:37.865Z,3.60
2023-01-19T08:47:15.058Z,3.60
2023-01-19T08:49:48.696Z,3.60
2023-01-19T08:52:24.788Z,3.60
2023-01-19T08:54:58.739Z,3.62
2023-01-19T08:57:32.956Z,3.70
2023-01-19T09:00:09.253Z,3.74
2023-01-19T09:02:43.171Z,3.80
2023-01-19T09:05:17.436Z,3.80
2023-01-19T09:07:51.805Z,3.82
2023-01-19T09:10:25.976Z,3.90
2023-01-19T09:12:59.807Z,4.00
2023-01-19T09:15:35.932Z,4.00
2023-01-19T09:18:14.070Z,4.00
2023-01-19T09:20:50.530Z,4.00
2023-01-19T09:23:25.474Z,4.02
2023-01-19T09:26:04.189Z,4.10
2023-01-19T09:28:38.380Z,4.10
2023-01-19T09:31:15.271Z,4.10
2023-01-19T09:33:49.227Z,4.00
2023-01-19T09:36:23.104Z,4.00
2023-01-19T09:38:56.881Z,4.10
2023-01-19T09:41:31.269Z,4.10
2023-01-19T09:44:05.320Z,4.10
2023-01-19T09:46:43.209Z,4.16
2023-01-19T09:49:22.216Z,4.20
2023-01-19T09:51:56.203Z,4.30
2023-01-19T09:54:41.062Z,4.40
2023-01-19T09:57:16.161Z,4.50
2023-01-19T09:59:51.576Z,4.50
2023-01-19T10:02:41.860Z,4.50
2023-01-19T10:05:33.075Z,4.50
2023-01-19T10:08:23.145Z,4.60
2023-01-19T10:11:01.211Z,4.68
2023-01-19T10:13:45.101Z,4.70
2023-01-19T10:16:35.196Z,4.88
2023-01-19T10:19:32.877Z,4.80
2023-01-19T10:22:20.499Z,4.90
2023-01-19T10:25:00.483Z,4.80
2023-01-19T10:27:37.757Z,4.80
2023-01-19T10:30:22.712Z,4.80
2023-01-19T10:32:57.231Z,4.80
2023-01-19T10:35:32.287Z,4.90
2023-01-19T10:38:07.040Z,4.90
2023-01-19T10:40:51.900Z,5.00
2023-01-19T10:43:44.304Z,5.00
2023-01-19T10:46:34.783Z,5.04
2023-01-19T10:49:27.377Z,5.08
2023-01-19T10:52:03.482Z,5.10
2023-01-19T10:54:40.250Z,5.20
2023-01-19T10:57:23.755Z,5.20
2023-01-19T10:59:58.098Z,5.18
2023-01-19T11:02:33.769Z,5.20
2023-01-19T11:05:30.783Z,5.30
2023-01-19T11:08:25.273Z,5.74
2023-01-19T11:11:04.536Z,6.14
2023-01-19T11:13:39.881Z,6.40
2023-01-19T11:16:28.021Z,6.60
2023-01-19T11:19:03.694Z,6.80
2023-01-19T11:21:37.679Z,7.00
2023-01-19T11:24:16.710Z,7.14
2023-01-19T11:26:57.598Z,7.42
2023-01-19T11:29:32.051Z,7.60
2023-01-19T11:32:23.476Z,7.70
2023-01-19T11:34:57.225Z,7.84
2023-01-19T11:37:35.561Z,8.10
2023-01-19T11:40:14.447Z,8.40
2023-01-19T11:42:48.482Z,8.50
2023-01-19T11:45:24.456Z,8.60
2023-01-19T11:48:03.020Z,8.50
2023-01-19T11:50:43.467Z,8.50
2023-01-19T11:53:25.478Z,8.70
2023-01-19T11:56:04.964Z,8.60
2023-01-19T11:58:43.347Z,8.70
2023-01-19T12:01:25.828Z,9.08
2023-01-19T12:04:08.176Z,8.88
2023-01-19T12:06:47.834Z,8.38
2023-01-19T12:09:25.516Z,8.02
2023-01-19T12:12:05.940Z,7.70
2023-01-19T12:14:52.919Z,7.50
2023-01-19T12:17:31.471Z,7.40
2023-01-19T12:20:15.851Z,7.30
2023-01-19T12:23:00.342Z,7.50
2023-01-19T12:25:55.003Z,7.50
2023-01-19T12:28:35.373Z,7.60
2023-01-19T12:31:10.651Z,7.60
2023-01-19T12:33:45.378Z,7.80
2023-01-19T12:36:40.323Z,8.10
2023-01-19T12:39:22.849Z,8.30
2023-01-19T12:42:13.883Z,8.10
2023-01-19T12:44:49.652Z,7.84
2023-01-19T12:47:24.873Z,7.70
2023-01-19T12:50:07.117Z,7.70
2023-01-19T12:52:51.697Z,7.74
2023-01-19T12:55:33.300Z,7.92
2023-01-19T12:58:17.797Z,8.14
2023-01-19T13:01:13.377Z,8.30
2023-01-19T13:04:02.067Z,8.30
2023-01-19T13:07:17.911Z,8.20
2023-01-19T13:09:53.035Z,8.50
2023-01-19T13:12:29.544Z,8.62
2023-01-19T13:15:39.676Z,8.78
2023-01-19T13:18:25.758Z,8.80
2023-01-19T13:21:06.725Z,8.60
2023-01-19T13:26:43.776Z,8.72
2023-01-19T13:29:28.079Z,8.80
2023-01-19T13:32:05.146Z,8.90
2023-01-19T13:34:46.718Z,9.04
2023-01-19T13:37:28.374Z,9.16
2023-01-19T13:40:03.396Z,8.84
2023-01-19T13:42:41.563Z,8.50
2023-01-19T13:45:33.550Z,8.20
2023-01-19T13:48:16.495Z,8.00
2023-01-19T13:51:06.775Z,7.90
2023-01-19T13:53:40.670Z,7.80
2023-01-19T13:56:23.289Z,7.90
2023-01-19T13:59:12.624Z,7.86
2023-01-19T14:01:51.121Z,7.90
2023-01-19T14:04:36.041Z,8.30
2023-01-19T14:07:26.428Z,8.38
2023-01-19T14:10:16.770Z,8.42
2023-01-19T14:13:01.230Z,8.50
2023-01-19T14:15:38.637Z,8.60
2023-01-19T14:18:30.169Z,8.94
2023-01-19T14:21:07.950Z,9.30
2023-01-19T14:23:47.297Z,9.60
2023-01-19T14:26:55.117Z,9.60
2023-01-19T14:29:33.117Z,9.40
2023-01-19T14:32:17.856Z,8.98
2023-01-19T14:34:54.583Z,8.40
2023-01-19T14:37:32.421Z,7.90
2023-01-19T14:40:21.320Z,7.50
2023-01-19T14:43:00.162Z,7.20
2023-01-19T14:45:38.729Z,6.98
2023-01-19T14:48:22.484Z,6.66
2023-01-19T14:51:06.273Z,6.30
2023-01-19T14:53:48.136Z,5.96
2023-01-19T14:56:32.381Z,5.66
2023-01-19T14:59:11.412Z,5.36
2023-01-19T15:01:46.115Z,5.06
2023-01-19T15:04:20.319Z,4.80
2023-01-19T15:06:56.328Z,4.50
2023-01-19T15:09:30.787Z,4.30
2023-01-19T15:12:05.598Z,4.14
2023-01-19T15:14:40.117Z,3.94
2023-01-19T15:17:25.773Z,3.80
2023-01-19T15:20:00.371Z,3.70
2023-01-19T15:22:34.426Z,3.52
2023-01-19T15:25:10.796Z,3.30
2023-01-19T15:27:45.972Z,3.10
2023-01-19T15:30:24.904Z,2.90
2023-01-19T15:32:59.239Z,2.70
2023-01-19T15:35:33.331Z,2.50
2023-01-19T15:38:07.619Z,2.34
2023-01-19T15:40:41.869Z,2.20
2023-01-19T15:43:16.513Z,2.00
2023-01-19T15:45:53.064Z,1.90
2023-01-19T15:48:27.290Z,1.90
2023-01-19T15:51:01.877Z,1.80
2023-01-19T15:53:36.120Z,1.68
2023-01-19T15:56:17.583Z,1.50
2023-01-19T15:58:52.251Z,1.42
2023-01-19T16:01:32.538Z,1.38
2023-01-19T16:04:11.168Z,1.26
2023-01-19T16:06:45.102Z,1.20
2023-01-19T16:09:20.202Z,1.20
2023-01-19T16:11:57.522Z,1.10
2023-01-19T16:14:31.776Z,1.04
2023-01-19T16:17:06.118Z,1.00
2023-01-19T16:19:40.188Z,0.90
2023-01-19T16:22:15.769Z,0.88
2023-01-19T16:24:49.891Z,0.80
2023-01-19T16:27:24.044Z,0.70
2023-01-19T16:30:00.096Z,0.62
2023-01-19T16:32:35.180Z,0.60
2023-01-19T16:35:11.316Z,0.50
2023-01-19T16:37:45.098Z,0.50
2023-01-19T16:40:20.683Z,0.50
2023-01-19T16:42:54.582Z,0.52
2023-01-19T16:45:28.595Z,0.50
2023-01-19T16:48:02.739Z,0.50
2023-01-19T16:50:37.141Z,0.40
2023-01-19T16:53:11.033Z,0.40
2023-01-19T16:55:47.479Z,0.38
2023-01-19T16:58:21.485Z,0.38
2023-01-19T17:00:55.813Z,0.40
2023-01-19T17:03:30.059Z,0.30
2023-01-19T17:06:03.900Z,0.30
2023-01-19T17:08:39.006Z,0.30
2023-01-19T17:11:20.814Z,0.20
2023-01-19T17:14:00.156Z,0.20
2023-01-19T17:16:36.737Z,0.18
2023-01-19T17:19:15.101Z,0.18
2023-01-19T17:21:51.155Z,0.20
2023-01-19T17:24:26.122Z,0.20
2023-01-19T17:27:00.578Z,0.16
2023-01-19T17:29:34.742Z,0.10
2023-01-19T17:32:09.709Z,0.10
2023-01-19T17:34:43.982Z,0.10
2023-01-19T17:37:18.606Z,0.00
2023-01-19T17:39:53.061Z,0.02
2023-01-19T17:42:27.303Z,0.10
2023-01-19T17:45:01.786Z,0.06
2023-01-19T17:47:36.113Z,0.00
2023-01-19T17:50:13.498Z,0.00
2023-01-19T17:52:48.881Z,-0.10
2023-01-19T17:55:23.012Z,-0.10
2023-01-19T17:57:59.597Z,-0.18
2023-01-19T18:00:34.542Z,-0.20
2023-01-19T18:03:08.933Z,-0.10
2023-01-19T18:05:43.272Z,-0.10
2023-01-19T18:08:18.197Z,-0.20
2023-01-19T18:11:00.512Z,-0.20
2023-01-19T18:13:34.871Z,-0.20
2023-01-19T18:16:12.497Z,-0.26
2023-01-19T18:18:49.456Z,-0.22
2023-01-19T18:21:27.493Z,-0.20
2023-01-19T18:24:07.107Z,-0.30
2023-01-19T18:26:42.709Z,-0.32
2023-01-19T18:29:19.349Z,-0.40
2023-01-19T18:31:53.387Z,-0.50
2023-01-19T18:34:27.954Z,-0.56
2023-01-19T18:37:01.856Z,-0.60
2023-01-19T18:39:36.387Z,-0.60
2023-01-19T18:42:10.909Z,-0.60
2023-01-19T18:44:45.149Z,-0.60
2023-01-19T18:47:19.300Z,-0.62
2023-01-19T18:49:53.957Z,-0.60
2023-01-19T18:52:28.061Z,-0.60
2023-01-19T18:55:02.315Z,-0.62
2023-01-19T18:57:37.216Z,-0.70
2023-01-19T19:00:15.962Z,-0.66
2023-01-19T19:02:50.250Z,-0.62
2023-01-19T19:05:24.414Z,-0.64
2023-01-19T19:07:58.478Z,-0.70
2023-01-19T19:10:32.565Z,-0.70
2023-01-19T19:13:07.197Z,-0.70
2023-01-19T19:15:41.476Z,-0.80
2023-01-19T19:18:16.747Z,-0.80
2023-01-19T19:20:50.887Z,-0.80
2023-01-19T19:23:24.894Z,-0.80
2023-01-19T19:26:04.720Z,-0.80
2023-01-19T19:28:40.962Z,-0.80
2023-01-19T19:31:20.710Z,-0.80
2023-01-19T19:33:55.549Z,-0.90
2023-01-19T19:36:31.858Z,-0.90
2023-01-19T19:39:06.327Z,-0.90
2023-01-19T19:41:40.561Z,-0.90
2023-01-19T19:44:15.695Z,-0.90
2023-01-19T19:46:50.164Z,-0.90
2023-01-19T19:49:24.233Z,-0.90
2023-01-19T19:51:58.435Z,-0.90
2023-01-19T19:54:32.412Z,-1.00
2023-01-19T19:57:06.504Z,-1.00
2023-01-19T19:59:41.125Z,-1.02
2023-01-19T20:02:16.497Z,-1.06
2023-01-19T20:04:50.895Z,-1.10
2023-01-19T20:07:25.096Z,-1.10
2023-01-19T20:09:59.296Z,-1.10
2023-01-19T20:12:34.471Z,-1.18
2023-01-19T20:15:11.469Z,-1.18
2023-01-19T20:17:45.566Z,-1.18
2023-01-19T20:20:20.417Z,-1.20
2023-01-19T20:22:54.503Z,-1.20
2023-01-19T20:25:29.257Z,-1.12
2023-01-19T20:28:03.425Z,-1.10
2023-01-19T20:30:37.678Z,-1.00
2023-01-19T20:33:12.280Z,-1.00
2023-01-19T20:35:46.445Z,-1.00
2023-01-19T20:38:21.000Z,-1.00
2023-01-19T20:40:56.063Z,-0.90
2023-01-19T20:43:31.645Z,-0.90
2023-01-19T20:46:07.182Z,-0.80
2023-01-19T20:48:42.462Z,-0.80
2023-01-19T20:51:19.101Z,-0.80
2023-01-19T20:53:53.529Z,-0.80
2023-01-19T20:56:27.789Z,-0.80
2023-01-19T20:59:02.941Z,-0.80
2023-01-19T21:01:37.467Z,-0.80
2023-01-19T21:04:12.853Z,-0.80
2023-01-19T21:06:47.709Z,-0.80
2023-01-19T21:09:23.018Z,-0.76
2023-01-19T21:11:57.744Z,-0.70
2023-01-19T21:14:32.278Z,-0.70
2023-01-19T21:17:06.299Z,-0.70
2023-01-19T21:19:40.256Z,-0.70
2023-01-19T21:22:14.355Z,-0.68
2023-01-19T21:24:49.151Z,-0.60
2023-01-19T21:27:23.275Z,-0.60
2023-01-19T21:29:58.755Z,-0.60
2023-01-19T21:32:32.741Z,-0.60
2023-01-19T21:35:08.308Z,-0.60
2023-01-19T21:37:42.475Z,-0.60
2023-01-19T21:40:18.536Z,-0.60
2023-01-19T21:42:53.659Z,-0.60
2023-01-19T21:45:28.049Z,-0.60
2023-01-19T21:48:01.949Z,-0.50
2023-01-19T21:50:36.647Z,-0.50
2023-01-19T21:53:11.741Z,-0.50
2023-01-19T21:55:48.439Z,-0.50
2023-01-19T21:58:24.672Z,-0.50
2023-01-19T22:01:06.691Z,-0.50
2023-01-19T22:03:41.057Z,-0.50
2023-01-19T22:06:17.134Z,-0.50
2023-01-19T22:08:51.206Z,-0.50
2023-01-19T22:11:25.779Z,-0.50
2023-01-19T22:14:00.989Z,-0.50
2023-01-19T22:16:35.613Z,-0.54
2023-01-19T22:19:12.693Z,-0.56
2023-01-19T22:21:46.997Z,-0.52
2023-01-19T22:24:21.300Z,-0.50
2023-01-19T22:26:56.016Z,-0.50
2023-01-19T22:29:30.517Z,-0.42
2023-01-19T22:32:04.841Z,-0.40
2023-01-19T22:34:39.275Z,-0.40
2023-01-19T22:37:13.424Z,-0.50
2023-01-19T22:39:47.751Z,-0.50
2023-01-19T22:42:22.135Z,-0.50
2023-01-19T22:44:56.238Z,-0.50
2023-01-19T22:47:30.355Z,-0.50
2023-01-19T22:50:05.013Z,-0.50
2023-01-19T22:52:39.097Z,-0.50
2023-01-19T22:55:15.475Z,-0.50
2023-01-19T22:57:50.390Z,-0.48
2023-01-19T23:00:26.032Z,-0.50
2023-01-19T23:03:01.613Z,-0.50
2023-01-19T23:05:38.398Z,-0.50
2023-01-19T23:08:12.586Z,-0.50
2023-01-19T23:10:46.873Z,-0.50
2023-01-19T23:13:20.846Z,-0.40
2023-01-19T23:15:54.871Z,-0.40
2023-01-19T23:18:29.139Z,-0.40
2023-01-19T23:21:12.813Z,-0.40
2023-01-19T23:23:48.275Z,-0.40
2023-01-19T23:26:24.696Z,-0.40
2023-01-19T23:29:01.675Z,-0.32
2023-01-19T23:31:38.472Z,-0.30
2023-01-19T23:34:15.304Z,-0.30
2023-01-19T23:36:49.739Z,-0.30
2023-01-19T23:39:25.384Z,-0.30
2023-01-19T23:41:59.596Z,-0.30
2023-01-19T23:44:33.374Z,-0.30
2023-01-19T23:47:08.161Z,-0.30
2023-01-19T23:49:42.285Z,-0.30
2023-01-19T23:52:16.202Z,-0.30
2023-01-19T23:54:50.387Z,-0.30
2023-01-19T23:57:24.509Z,-0.40
2023-01-19T23:59:59.030Z,-0.40
